createdAt,value
2022-11-23T00:00:58.023Z,1.77
2022-11-23T00:03:25.030Z,1.50
2022-11-23T00:05:51.832Z,2.00
2022-11-23T00:08:18.600Z,2.30
2022-11-23T00:10:45.453Z,1.92
2022-11-23T00:13:12.193Z,1.98
2022-11-23T00:15:40.977Z,1.63
2022-11-23T00:18:07.863Z,1.40
2022-11-23T00:20:34.679Z,1.53
2022-11-23T00:23:01.652Z,1.57
2022-11-23T00:25:29.523Z,1.50
2022-11-23T00:27:56.459Z,1.60
2022-11-23T00:30:23.268Z,1.50
2022-11-23T00:32:50.132Z,1.40
2022-11-23T00:35:16.984Z,1.50
2022-11-23T00:37:43.870Z,1.40
2022-11-23T00:40:10.978Z,1.30
2022-11-23T00:42:38.320Z,1.50
2022-11-23T00:45:05.712Z,1.75
2022-11-23T00:47:32.457Z,1.60
2022-11-23T00:49:59.347Z,1.40
2022-11-23T00:52:26.180Z,1.37
2022-11-23T00:54:53.051Z,1.80
2022-11-23T00:57:19.840Z,1.60
2022-11-23T00:59:46.579Z,1.38
2022-11-23T01:02:13.420Z,1.38
2022-11-23T01:04:40.193Z,1.50
2022-11-23T01:07:07.012Z,1.50
2022-11-23T01:09:33.965Z,1.67
2022-11-23T01:12:00.823Z,1.40
2022-11-23T01:14:27.654Z,1.30
2022-11-23T01:16:54.485Z,1.52
2022-11-23T01:19:21.296Z,1.33
2022-11-23T01:21:48.315Z,1.42
2022-11-23T01:24:20.972Z,1.52
2022-11-23T01:26:52.531Z,1.20
2022-11-23T01:29:19.411Z,1.50
2022-11-23T01:31:47.076Z,1.50
2022-11-23T01:34:14.949Z,1.52
2022-11-23T01:36:42.400Z,1.50
2022-11-23T01:39:10.624Z,1.40
2022-11-23T01:41:40.305Z,1.50
2022-11-23T01:44:33.224Z,1.50
2022-11-23T01:47:08.139Z,1.23
2022-11-23T01:49:49.529Z,1.80
2022-11-23T01:52:21.989Z,1.50
2022-11-23T01:54:52.610Z,1.90
2022-11-23T01:57:28.416Z,1.40
2022-11-23T01:59:56.256Z,1.60
2022-11-23T02:02:23.123Z,1.70
2022-11-23T02:04:53.111Z,1.60
2022-11-23T02:07:21.881Z,1.70
2022-11-23T02:09:49.093Z,1.60
2022-11-23T02:12:16.538Z,1.30
2022-11-23T02:14:44.081Z,1.70
2022-11-23T02:17:11.252Z,1.48
2022-11-23T02:19:59.306Z,1.70
2022-11-23T02:22:49.104Z,2.03
2022-11-23T02:25:56.163Z,1.52
2022-11-23T02:28:28.939Z,1.70
2022-11-23T02:30:56.239Z,1.45
2022-11-23T02:33:23.115Z,1.30
2022-11-23T02:35:54.951Z,1.80
2022-11-23T02:38:23.631Z,1.50
2022-11-23T02:40:50.536Z,1.70
2022-11-23T02:43:17.534Z,1.40
2022-11-23T02:45:54.719Z,1.70
2022-11-23T02:48:21.870Z,1.63
2022-11-23T02:50:48.591Z,1.70
2022-11-23T02:53:18.643Z,2.47
2022-11-23T02:55:45.488Z,1.80
2022-11-23T02:58:12.276Z,1.70
2022-11-23T03:00:39.262Z,1.63
2022-11-23T03:03:06.225Z,2.10
2022-11-23T03:05:33.035Z,1.45
2022-11-23T03:07:59.861Z,1.60
2022-11-23T03:10:27.514Z,1.60
2022-11-23T03:12:56.219Z,1.63
2022-11-23T03:15:24.105Z,1.70
2022-11-23T03:17:51.009Z,1.70
2022-11-23T03:20:18.369Z,1.85
2022-11-23T03:22:46.253Z,1.60
2022-11-23T03:25:13.229Z,1.58
2022-11-23T03:27:40.064Z,1.90
2022-11-23T03:30:08.769Z,1.80
2022-11-23T03:32:36.539Z,1.58
2022-11-23T03:35:04.332Z,2.20
2022-11-23T03:37:31.125Z,1.80
2022-11-23T03:39:57.959Z,2.00
2022-11-23T03:42:24.703Z,1.67
2022-11-23T03:44:51.448Z,1.95
2022-11-23T03:47:18.249Z,1.90
2022-11-23T03:49:45.752Z,1.98
2022-11-23T03:52:12.544Z,1.50
2022-11-23T03:54:39.403Z,1.85
2022-11-23T03:57:06.086Z,1.60
2022-11-23T03:59:34.418Z,1.85
2022-11-23T04:02:01.566Z,2.00
2022-11-23T04:04:28.399Z,2.00
2022-11-23T04:06:55.179Z,1.90
2022-11-23T04:09:23.450Z,1.30
2022-11-23T04:11:50.184Z,1.50
2022-11-23T04:14:17.084Z,1.70
2022-11-23T04:16:43.872Z,2.10
2022-11-23T04:19:10.936Z,1.60
2022-11-23T04:21:37.820Z,1.50
2022-11-23T04:24:04.835Z,1.67
2022-11-23T04:26:31.539Z,1.80
2022-11-23T04:28:58.264Z,2.00
2022-11-23T04:31:25.043Z,1.95
2022-11-23T04:33:52.039Z,2.00
2022-11-23T04:36:18.776Z,2.00
2022-11-23T04:38:45.556Z,1.92
2022-11-23T04:41:12.407Z,2.22
2022-11-23T04:43:39.251Z,2.10
2022-11-23T04:46:05.956Z,1.75
2022-11-23T04:48:32.896Z,1.70
2022-11-23T04:50:59.916Z,2.10
2022-11-23T04:53:26.752Z,1.80
2022-11-23T04:55:53.519Z,1.70
2022-11-23T04:58:20.692Z,1.58
2022-11-23T05:00:47.515Z,1.70
2022-11-23T05:03:14.523Z,1.90
2022-11-23T05:05:41.483Z,1.60
2022-11-23T05:08:08.946Z,1.50
2022-11-23T05:10:36.768Z,1.70
2022-11-23T05:13:03.832Z,2.00
2022-11-23T05:15:30.611Z,1.83
2022-11-23T05:18:07.115Z,1.67
2022-11-23T05:20:34.726Z,1.80
2022-11-23T05:23:01.611Z,1.85
2022-11-23T05:25:28.429Z,1.33
2022-11-23T05:27:55.204Z,1.95
2022-11-23T05:30:22.094Z,1.60
2022-11-23T05:32:49.212Z,1.60
2022-11-23T05:35:16.040Z,1.70
2022-11-23T05:37:42.927Z,1.50
2022-11-23T05:40:11.040Z,1.65
2022-11-23T05:42:37.807Z,1.70
2022-11-23T05:45:10.037Z,1.65
2022-11-23T05:47:38.396Z,1.90
2022-11-23T05:50:05.960Z,1.80
2022-11-23T05:52:32.776Z,1.55
2022-11-23T05:54:59.543Z,2.17
2022-11-23T05:57:26.289Z,2.40
2022-11-23T05:59:54.341Z,3.30
2022-11-23T06:02:21.064Z,2.00
2022-11-23T06:04:47.854Z,1.60
2022-11-23T06:07:14.655Z,1.70
2022-11-23T06:09:41.404Z,1.55
2022-11-23T06:12:08.405Z,1.60
2022-11-23T06:14:35.227Z,2.00
2022-11-23T06:17:02.000Z,1.80
2022-11-23T06:19:30.696Z,1.60
2022-11-23T06:21:58.209Z,1.40
2022-11-23T06:24:25.239Z,1.50
2022-11-23T06:26:52.704Z,1.60
2022-11-23T06:29:22.521Z,1.85
2022-11-23T06:31:49.503Z,1.30
2022-11-23T06:34:16.292Z,2.00
2022-11-23T06:36:43.298Z,1.80
2022-11-23T06:39:10.354Z,1.80
2022-11-23T06:41:37.155Z,2.10
2022-11-23T06:44:04.095Z,2.10
2022-11-23T06:46:30.968Z,2.10
2022-11-23T06:48:57.700Z,2.40
2022-11-23T06:51:24.610Z,2.30
2022-11-23T06:53:51.368Z,2.20
2022-11-23T06:56:18.257Z,2.60
2022-11-23T06:58:45.144Z,2.45
2022-11-23T07:01:12.250Z,2.33
2022-11-23T07:03:39.090Z,2.40
2022-11-23T07:06:07.289Z,2.20
2022-11-23T07:08:35.395Z,2.30
2022-11-23T07:11:02.972Z,2.20
2022-11-23T07:13:29.835Z,2.00
2022-11-23T07:15:58.923Z,1.73
2022-11-23T07:18:26.483Z,2.35
2022-11-23T07:20:53.333Z,1.60
2022-11-23T07:23:20.075Z,1.90
2022-11-23T07:25:46.775Z,1.45
2022-11-23T07:28:14.435Z,2.00
2022-11-23T07:30:41.441Z,2.00
2022-11-23T07:33:11.063Z,1.88
2022-11-23T07:35:39.733Z,1.70
2022-11-23T07:38:08.451Z,1.60
2022-11-23T07:40:39.506Z,1.40
2022-11-23T07:43:07.123Z,1.67
2022-11-23T07:45:34.578Z,1.70
2022-11-23T07:48:05.241Z,1.83
2022-11-23T07:50:33.260Z,1.40
2022-11-23T07:53:02.256Z,1.50
2022-11-23T07:55:30.717Z,1.50
2022-11-23T07:57:58.771Z,1.50
2022-11-23T08:00:27.350Z,1.30
2022-11-23T08:03:25.730Z,1.27
2022-11-23T08:05:40.981Z,1.20
2022-11-23T08:08:07.835Z,1.63
2022-11-23T08:10:38.751Z,2.10
2022-11-23T08:13:08.875Z,1.90
2022-11-23T08:15:36.160Z,2.07
2022-11-23T08:18:04.204Z,1.80
2022-11-23T08:20:31.662Z,1.60
2022-11-23T08:22:58.419Z,1.40
2022-11-23T08:25:27.161Z,1.13
2022-11-23T08:28:04.944Z,1.40
2022-11-23T08:30:33.405Z,1.80
2022-11-23T08:33:04.622Z,1.30
2022-11-23T08:35:37.022Z,1.45
2022-11-23T08:38:04.713Z,1.80
2022-11-23T08:40:32.079Z,1.40
2022-11-23T08:42:59.198Z,1.30
2022-11-23T08:45:26.551Z,1.30
2022-11-23T08:47:54.016Z,1.00
2022-11-23T08:50:21.432Z,1.15
2022-11-23T08:52:48.251Z,1.25
2022-11-23T08:55:15.064Z,1.08
2022-11-23T08:57:42.032Z,1.10
2022-11-23T09:00:09.437Z,1.17
2022-11-23T09:02:36.237Z,1.10
2022-11-23T09:05:04.552Z,1.50
2022-11-23T09:07:32.626Z,1.30
2022-11-23T09:09:59.474Z,1.38
2022-11-23T09:12:26.326Z,1.38
2022-11-23T09:14:53.442Z,1.20
2022-11-23T09:17:20.252Z,1.50
2022-11-23T09:19:47.090Z,1.20
2022-11-23T09:22:13.897Z,1.33
2022-11-23T09:24:40.659Z,1.00
2022-11-23T09:27:07.861Z,1.40
2022-11-23T09:29:34.696Z,1.10
2022-11-23T09:32:02.835Z,1.30
2022-11-23T09:34:29.997Z,1.40
2022-11-23T09:36:57.417Z,1.40
2022-11-23T09:39:24.216Z,1.52
2022-11-23T09:42:27.071Z,1.30
2022-11-23T09:45:16.320Z,1.40
2022-11-23T09:47:48.965Z,1.42
2022-11-23T09:50:24.560Z,1.23
2022-11-23T09:52:52.186Z,1.20
2022-11-23T09:55:18.941Z,1.30
2022-11-23T09:57:48.471Z,1.05
2022-11-23T10:00:23.125Z,1.10
2022-11-23T10:02:50.544Z,1.20
2022-11-23T10:05:31.800Z,1.67
2022-11-23T10:08:33.193Z,1.70
2022-11-23T10:11:25.911Z,0.80
2022-11-23T10:14:18.207Z,1.30
2022-11-23T10:17:00.732Z,1.17
2022-11-23T10:20:09.290Z,0.90
2022-11-23T10:22:44.983Z,1.17
2022-11-23T10:25:24.195Z,0.90
2022-11-23T10:27:55.596Z,1.00
2022-11-23T10:30:22.570Z,1.20
2022-11-23T10:32:52.111Z,1.30
2022-11-23T10:35:27.427Z,1.40
2022-11-23T10:38:18.665Z,1.27
2022-11-23T10:41:04.962Z,0.90
2022-11-23T10:43:41.987Z,1.10
2022-11-23T10:46:28.386Z,1.00
2022-11-23T10:48:55.961Z,0.90
2022-11-23T10:51:33.292Z,0.70
2022-11-23T10:54:06.899Z,0.93
2022-11-23T10:56:34.817Z,1.10
2022-11-23T10:59:01.931Z,1.00
2022-11-23T11:01:30.183Z,1.00
2022-11-23T11:04:03.576Z,1.02
2022-11-23T11:06:36.000Z,0.93
2022-11-23T11:09:09.519Z,1.10
2022-11-23T11:11:45.426Z,1.08
2022-11-23T11:14:17.044Z,1.23
2022-11-23T11:16:48.591Z,1.00
2022-11-23T11:19:28.920Z,0.90
2022-11-23T11:21:57.646Z,1.00
2022-11-23T11:24:31.783Z,1.40
2022-11-23T11:27:02.488Z,0.90
2022-11-23T11:29:39.193Z,1.23
2022-11-23T11:32:23.767Z,1.70
2022-11-23T11:35:31.292Z,1.05
2022-11-23T11:38:17.215Z,1.20
2022-11-23T11:40:52.021Z,1.25
2022-11-23T11:43:42.512Z,0.90
2022-11-23T11:46:30.887Z,0.82
2022-11-23T11:49:26.532Z,1.00
2022-11-23T11:52:03.431Z,1.10
2022-11-23T11:54:42.508Z,1.15
2022-11-23T11:57:33.108Z,0.90
2022-11-23T12:00:02.684Z,1.10
2022-11-23T12:02:48.265Z,1.10
2022-11-23T12:05:25.354Z,1.00
2022-11-23T12:08:10.272Z,0.90
2022-11-23T12:10:43.580Z,0.90
2022-11-23T12:13:25.980Z,1.05
2022-11-23T12:16:02.163Z,1.20
2022-11-23T12:19:04.237Z,0.90
2022-11-23T12:21:52.788Z,0.80
2022-11-23T12:24:49.644Z,0.90
2022-11-23T12:27:28.136Z,0.90
2022-11-23T12:30:20.359Z,0.80
2022-11-23T12:33:13.304Z,0.80
2022-11-23T12:35:49.115Z,0.90
2022-11-23T12:38:24.146Z,0.80
2022-11-23T12:40:54.015Z,0.90
2022-11-23T12:43:54.083Z,1.07
2022-11-23T12:47:01.724Z,0.97
2022-11-23T12:49:46.456Z,1.00
2022-11-23T12:52:24.995Z,0.90
2022-11-23T12:55:06.235Z,0.70
2022-11-23T12:58:01.991Z,0.90
2022-11-23T13:00:36.218Z,1.00
2022-11-23T13:03:39.398Z,1.20
2022-11-23T13:06:33.464Z,1.10
2022-11-23T13:09:26.734Z,0.88
2022-11-23T13:12:15.058Z,1.10
2022-11-23T13:15:03.491Z,1.25
2022-11-23T13:17:51.557Z,0.90
2022-11-23T13:20:46.019Z,0.80
2022-11-23T13:23:12.862Z,0.80
2022-11-23T13:25:39.830Z,1.10
2022-11-23T13:28:29.266Z,1.50
2022-11-23T13:31:15.782Z,1.20
2022-11-23T13:33:45.091Z,1.08
2022-11-23T13:37:04.404Z,1.20
2022-11-23T13:39:42.214Z,1.40
2022-11-23T13:42:10.868Z,0.80
2022-11-23T13:44:37.942Z,0.90
2022-11-23T13:47:07.902Z,0.90
2022-11-23T13:50:07.920Z,0.90
2022-11-23T13:52:36.785Z,0.90
2022-11-23T13:55:19.908Z,1.00
2022-11-23T13:58:26.999Z,1.40
2022-11-23T14:00:56.092Z,1.00
2022-11-23T14:03:51.078Z,1.05
2022-11-23T14:06:45.926Z,1.10
2022-11-23T14:09:21.265Z,1.25
2022-11-23T14:12:09.556Z,1.20
2022-11-23T14:14:57.638Z,1.10
2022-11-23T14:17:58.721Z,0.80
2022-11-23T14:20:28.519Z,0.90
2022-11-23T14:23:01.176Z,1.00
2022-11-23T14:25:55.716Z,1.10
2022-11-23T14:28:46.775Z,1.20
2022-11-23T14:31:47.986Z,1.30
2022-11-23T14:34:50.544Z,1.15
2022-11-23T14:37:49.781Z,1.50
2022-11-23T14:40:27.956Z,1.10
2022-11-23T14:42:56.593Z,1.35
2022-11-23T14:45:33.070Z,0.80
2022-11-23T14:48:22.652Z,0.80
2022-11-23T14:51:19.777Z,0.90
2022-11-23T14:53:56.794Z,1.30
2022-11-23T14:56:35.353Z,1.10
2022-11-23T14:59:16.905Z,1.30
2022-11-23T15:02:00.513Z,1.40
2022-11-23T15:04:35.093Z,1.20
2022-11-23T15:07:08.499Z,1.10
2022-11-23T15:09:53.855Z,1.30
2022-11-23T15:12:28.163Z,1.63
2022-11-23T15:14:59.026Z,1.20
2022-11-23T15:17:27.045Z,1.80
2022-11-23T15:19:59.164Z,1.75
2022-11-23T15:22:27.589Z,3.20
2022-11-23T15:25:05.421Z,2.50
2022-11-23T15:27:32.256Z,2.25
2022-11-23T15:30:00.456Z,1.73
2022-11-23T15:32:31.935Z,1.40
2022-11-23T15:35:04.250Z,1.10
2022-11-23T15:37:32.686Z,2.38
2022-11-23T15:40:00.212Z,2.05
2022-11-23T15:42:28.547Z,1.70
2022-11-23T15:44:55.690Z,1.88
2022-11-23T15:47:27.656Z,22.90
2022-11-23T15:50:08.087Z,14.48
2022-11-23T15:52:37.516Z,4.30
2022-11-23T15:55:12.709Z,6.30
2022-11-23T15:57:41.170Z,5.65
2022-11-23T16:00:10.105Z,3.33
2022-11-23T16:02:37.110Z,2.80
2022-11-23T16:05:25.298Z,3.42
2022-11-23T16:08:00.603Z,7.90
2022-11-23T16:10:33.195Z,10.60
2022-11-23T16:13:02.381Z,9.13
2022-11-23T16:15:38.271Z,4.97
2022-11-23T16:18:23.509Z,5.15
2022-11-23T16:20:57.409Z,4.65
2022-11-23T16:23:28.144Z,4.70
2022-11-23T16:26:05.866Z,3.20
2022-11-23T16:28:40.328Z,3.10
2022-11-23T16:31:25.043Z,2.40
2022-11-23T16:33:52.020Z,4.00
2022-11-23T16:36:18.852Z,1.60
2022-11-23T16:38:45.635Z,2.00
2022-11-23T16:41:12.456Z,4.60
2022-11-23T16:43:39.327Z,3.60
2022-11-23T16:46:08.681Z,2.83
2022-11-23T16:48:36.848Z,2.70
2022-11-23T16:51:03.715Z,3.55
2022-11-23T16:53:47.103Z,2.72
2022-11-23T16:56:25.735Z,3.60
2022-11-23T16:58:54.071Z,2.80
2022-11-23T17:01:24.296Z,3.00
2022-11-23T17:03:51.710Z,5.20
2022-11-23T17:06:22.781Z,5.13
2022-11-23T17:08:58.292Z,5.30
2022-11-23T17:11:27.960Z,4.00
2022-11-23T17:13:56.048Z,3.90
2022-11-23T17:16:25.224Z,2.80
2022-11-23T17:18:52.207Z,2.60
2022-11-23T17:21:19.038Z,2.00
2022-11-23T17:23:46.753Z,1.80
2022-11-23T17:26:33.959Z,2.30
2022-11-23T17:29:03.409Z,1.40
2022-11-23T17:31:30.892Z,1.52
2022-11-23T17:33:57.807Z,1.50
2022-11-23T17:36:26.293Z,1.38
2022-11-23T17:38:53.871Z,1.40
2022-11-23T17:41:20.672Z,1.40
2022-11-23T17:43:47.648Z,1.60
2022-11-23T17:46:23.917Z,1.23
2022-11-23T17:48:58.681Z,1.58
2022-11-23T17:51:25.745Z,1.60
2022-11-23T17:53:52.503Z,1.30
2022-11-23T17:56:22.249Z,1.45
2022-11-23T17:58:49.537Z,1.20
2022-11-23T18:01:18.633Z,1.40
2022-11-23T18:03:46.048Z,1.90
2022-11-23T18:06:18.847Z,1.70
2022-11-23T18:08:46.666Z,2.10
2022-11-23T18:11:14.132Z,2.05
2022-11-23T18:13:41.288Z,1.40
2022-11-23T18:16:08.853Z,1.50
2022-11-23T18:18:36.454Z,1.80
2022-11-23T18:21:04.999Z,1.70
2022-11-23T18:23:31.979Z,1.60
2022-11-23T18:26:01.087Z,1.83
2022-11-23T18:28:28.116Z,2.10
2022-11-23T18:30:55.125Z,2.30
2022-11-23T18:33:23.025Z,1.70
2022-11-23T18:35:50.471Z,2.90
2022-11-23T18:38:17.250Z,2.40
2022-11-23T18:40:43.976Z,1.80
2022-11-23T18:43:10.735Z,2.42
2022-11-23T18:45:37.552Z,2.40
2022-11-23T18:48:05.016Z,2.30
2022-11-23T18:50:32.003Z,2.83
2022-11-23T18:52:59.081Z,2.47
2022-11-23T18:55:25.845Z,2.70
2022-11-23T18:57:55.903Z,2.40
2022-11-23T19:00:23.100Z,2.20
2022-11-23T19:02:54.848Z,2.15
2022-11-23T19:05:22.677Z,1.92
2022-11-23T19:07:51.418Z,1.80
2022-11-23T19:10:19.702Z,2.10
2022-11-23T19:12:46.574Z,2.70
2022-11-23T19:15:13.393Z,2.80
2022-11-23T19:17:40.241Z,2.40
2022-11-23T19:20:08.371Z,2.08
2022-11-23T19:22:35.927Z,2.10
2022-11-23T19:25:02.796Z,2.13
2022-11-23T19:27:30.775Z,2.00
2022-11-23T19:29:57.681Z,2.20
2022-11-23T19:32:24.420Z,2.30
2022-11-23T19:34:51.172Z,2.90
2022-11-23T19:37:18.209Z,2.87
2022-11-23T19:39:45.043Z,3.40
2022-11-23T19:42:11.879Z,2.60
2022-11-23T19:44:38.957Z,2.33
2022-11-23T19:47:11.976Z,2.28
2022-11-23T19:49:41.360Z,2.47
2022-11-23T19:52:08.186Z,2.00
2022-11-23T19:54:35.020Z,2.70
2022-11-23T19:57:01.873Z,3.05
2022-11-23T19:59:28.781Z,3.10
2022-11-23T20:01:55.554Z,3.45
2022-11-23T20:04:22.295Z,2.92
2022-11-23T20:06:49.203Z,2.17
2022-11-23T20:09:19.129Z,2.30
2022-11-23T20:11:50.643Z,2.30
2022-11-23T20:14:17.981Z,2.15
2022-11-23T20:16:44.989Z,2.30
2022-11-23T20:19:11.874Z,2.10
2022-11-23T20:21:38.909Z,1.90
2022-11-23T20:24:11.920Z,2.00
2022-11-23T20:26:40.177Z,1.60
2022-11-23T20:29:08.389Z,2.30
2022-11-23T20:31:36.453Z,2.55
2022-11-23T20:34:07.100Z,2.75
2022-11-23T20:36:37.534Z,2.57
2022-11-23T20:39:06.720Z,2.70
2022-11-23T20:41:35.539Z,3.00
2022-11-23T20:44:09.451Z,3.58
2022-11-23T20:49:23.041Z,3.28
2022-11-23T20:51:49.899Z,3.60
2022-11-23T20:54:16.638Z,6.20
2022-11-23T20:56:43.464Z,8.95
2022-11-23T20:59:11.936Z,8.88
2022-11-23T21:01:40.574Z,6.80
2022-11-23T21:04:08.885Z,5.90
2022-11-23T21:06:39.356Z,4.88
2022-11-23T21:09:08.865Z,9.30
2022-11-23T21:11:54.083Z,10.73
2022-11-23T21:14:24.372Z,11.82
2022-11-23T21:17:00.944Z,8.17
2022-11-23T21:19:33.228Z,4.25
2022-11-23T21:22:07.238Z,6.50
2022-11-23T21:24:35.556Z,8.30
2022-11-23T21:27:07.260Z,6.10
2022-11-23T21:29:34.219Z,5.20
2022-11-23T21:32:04.124Z,2.97
2022-11-23T21:34:31.426Z,2.65
2022-11-23T21:36:58.538Z,2.20
2022-11-23T21:39:25.329Z,2.08
2022-11-23T21:41:53.756Z,2.17
2022-11-23T21:44:22.237Z,2.00
2022-11-23T21:46:49.459Z,2.33
2022-11-23T21:49:16.351Z,1.83
2022-11-23T21:51:43.723Z,1.73
2022-11-23T21:54:15.411Z,1.50
2022-11-23T21:56:44.107Z,1.60
2022-11-23T21:59:11.160Z,1.65
2022-11-23T22:01:38.437Z,1.70
2022-11-23T22:04:10.951Z,1.50
2022-11-23T22:06:38.970Z,1.50
2022-11-23T22:09:09.161Z,1.50
2022-11-23T22:11:37.520Z,1.33
2022-11-23T22:14:07.201Z,1.65
2022-11-23T22:16:39.211Z,1.20
2022-11-23T22:19:06.525Z,1.20
2022-11-23T22:21:35.842Z,1.20
2022-11-23T22:24:03.712Z,1.20
2022-11-23T22:26:31.388Z,1.20
2022-11-23T22:29:02.741Z,1.60
2022-11-23T22:31:32.917Z,1.30
2022-11-23T22:34:01.722Z,1.60
2022-11-23T22:36:28.806Z,1.60
2022-11-23T22:39:06.451Z,1.30
2022-11-23T22:41:36.679Z,1.65
2022-11-23T22:44:09.116Z,2.08
2022-11-23T22:46:36.948Z,2.15
2022-11-23T22:49:04.419Z,2.17
2022-11-23T22:51:31.311Z,1.80
2022-11-23T22:53:59.877Z,1.83
2022-11-23T22:56:28.638Z,1.90
2022-11-23T22:58:55.424Z,2.28
2022-11-23T23:01:27.784Z,2.15
2022-11-23T23:03:56.358Z,3.10
2022-11-23T23:06:25.970Z,2.30
2022-11-23T23:08:55.679Z,1.70
2022-11-23T23:11:23.837Z,1.90
2022-11-23T23:13:51.852Z,1.80
2022-11-23T23:16:18.979Z,1.80
2022-11-23T23:18:46.098Z,2.50
2022-11-23T23:21:21.166Z,1.90
2022-11-23T23:23:53.591Z,2.70
2022-11-23T23:26:23.259Z,2.60
2022-11-23T23:28:55.580Z,2.60
2022-11-23T23:31:22.879Z,2.30
2022-11-23T23:33:49.820Z,2.10
2022-11-23T23:36:19.747Z,2.20
2022-11-23T23:38:46.837Z,2.67
2022-11-23T23:41:14.771Z,2.20
2022-11-23T23:43:43.893Z,2.30
2022-11-23T23:46:13.482Z,2.20
2022-11-23T23:48:41.579Z,3.30
2022-11-23T23:51:20.222Z,1.85
2022-11-23T23:53:47.817Z,2.10
2022-11-23T23:56:22.679Z,2.10
2022-11-23T23:58:50.983Z,2.03
